createdAt,value
2023-11-05T00:00:03.925Z,976.03
2023-11-05T00:01:03.973Z,976.00
2023-11-05T00:02:03.938Z,975.98
2023-11-05T00:03:03.982Z,975.96
2023-11-05T00:04:03.933Z,975.97
2023-11-05T00:05:03.918Z,975.97
2023-11-05T00:06:03.894Z,975.95
2023-11-05T00:07:03.920Z,975.95
2023-11-05T00:08:03.868Z,975.85
2023-11-05T00:09:03.831Z,975.86
2023-11-05T00:10:03.838Z,975.82
2023-11-05T00:11:03.824Z,975.84
2023-11-05T00:12:03.827Z,975.84
2023-11-05T00:13:03.832Z,975.82
2023-11-05T00:14:03.807Z,975.82
2023-11-05T00:15:03.786Z,975.82
2023-11-05T00:16:03.794Z,975.77
2023-11-05T00:17:03.743Z,975.79
2023-11-05T00:18:03.832Z,975.74
2023-11-05T00:19:03.817Z,975.74
2023-11-05T00:20:03.744Z,975.66
2023-11-05T00:21:03.718Z,975.70
2023-11-05T00:22:03.732Z,975.68
2023-11-05T00:23:03.702Z,975.66
2023-11-05T00:24:03.674Z,975.74
2023-11-05T00:25:03.717Z,975.78
2023-11-05T00:26:03.687Z,975.76
2023-11-05T00:27:03.653Z,975.72
2023-11-05T00:28:03.701Z,975.77
2023-11-05T00:29:03.639Z,975.76
2023-11-05T00:30:03.660Z,975.75
2023-11-05T00:31:03.619Z,975.75
2023-11-05T00:32:03.603Z,975.76
2023-11-05T00:33:03.690Z,975.74
2023-11-05T00:34:03.644Z,975.73
2023-11-05T00:35:03.685Z,975.66
2023-11-05T00:36:03.544Z,975.72
2023-11-05T00:37:03.564Z,975.72
2023-11-05T00:38:03.537Z,975.67
2023-11-05T00:39:03.534Z,975.69
2023-11-05T00:40:06.241Z,975.67
2023-11-05T00:41:03.518Z,975.71
2023-11-05T00:42:03.504Z,975.72
2023-11-05T00:43:03.486Z,975.79
2023-11-05T00:44:03.475Z,975.83
2023-11-05T00:45:03.479Z,975.86
2023-11-05T00:46:03.486Z,975.85
2023-11-05T00:47:03.433Z,975.89
2023-11-05T00:48:03.432Z,975.78
2023-11-05T00:49:03.543Z,975.79
2023-11-05T00:50:03.447Z,975.75
2023-11-05T00:51:03.391Z,975.72
2023-11-05T00:52:03.865Z,975.76
2023-11-05T00:53:03.377Z,975.74
2023-11-05T00:54:03.422Z,975.73
2023-11-05T00:55:03.398Z,975.72
2023-11-05T00:56:03.337Z,975.69
2023-11-05T00:57:03.371Z,975.65
2023-11-05T00:58:03.357Z,975.63
2023-11-05T00:59:03.343Z,975.62
2023-11-05T01:00:04.686Z,975.59
2023-11-05T01:01:03.311Z,975.60
2023-11-05T01:02:03.314Z,975.59
2023-11-05T01:03:03.351Z,975.55
2023-11-05T01:04:03.438Z,975.58
2023-11-05T01:05:03.345Z,975.63
2023-11-05T01:06:03.253Z,975.58
2023-11-05T01:07:03.269Z,975.54
2023-11-05T01:08:03.227Z,975.60
2023-11-05T01:09:03.205Z,975.54
2023-11-05T01:10:03.218Z,975.57
2023-11-05T01:11:03.202Z,975.49
2023-11-05T01:12:03.213Z,975.47
2023-11-05T01:13:03.187Z,975.55
2023-11-05T01:14:03.192Z,975.53
2023-11-05T01:15:03.189Z,975.51
2023-11-05T01:16:03.139Z,975.48
2023-11-05T01:17:03.110Z,975.52
2023-11-05T01:18:03.204Z,975.51
2023-11-05T01:19:03.117Z,975.49
2023-11-05T01:20:03.102Z,975.54
2023-11-05T01:21:03.068Z,975.51
2023-11-05T01:22:03.101Z,975.47
2023-11-05T01:23:03.051Z,975.54
2023-11-05T01:24:03.078Z,975.49
2023-11-05T01:25:03.060Z,975.47
2023-11-05T01:26:03.044Z,975.44
2023-11-05T01:27:03.086Z,975.41
2023-11-05T01:28:03.040Z,975.45
2023-11-05T01:29:02.995Z,975.41
2023-11-05T01:30:03.061Z,975.42
2023-11-05T01:31:03.004Z,975.44
2023-11-05T01:32:02.960Z,975.48
2023-11-05T01:33:03.054Z,975.44
2023-11-05T01:34:02.989Z,975.49
2023-11-05T01:35:02.951Z,975.51
2023-11-05T01:36:05.375Z,975.50
2023-11-05T01:37:02.960Z,975.45
2023-11-05T01:38:02.917Z,975.49
2023-11-05T01:39:02.916Z,975.44
2023-11-05T01:40:02.892Z,975.47
2023-11-05T01:41:02.908Z,975.45
2023-11-05T01:42:02.873Z,975.46
2023-11-05T01:43:02.878Z,975.47
2023-11-05T01:44:02.880Z,975.44
2023-11-05T01:45:02.818Z,975.43
2023-11-05T01:46:02.866Z,975.41
2023-11-05T01:47:02.828Z,975.43
2023-11-05T01:48:02.849Z,975.45
2023-11-05T01:49:02.821Z,975.37
2023-11-05T01:50:02.769Z,975.43
2023-11-05T01:51:02.781Z,975.44
2023-11-05T01:52:02.780Z,975.46
2023-11-05T01:53:02.773Z,975.40
2023-11-05T01:54:02.735Z,975.45
2023-11-05T01:55:02.753Z,975.40
2023-11-05T01:56:02.730Z,975.39
2023-11-05T01:57:02.722Z,975.42
2023-11-05T01:58:02.726Z,975.35
2023-11-05T01:59:02.685Z,975.43
2023-11-05T02:00:02.678Z,975.44
2023-11-05T02:01:02.756Z,975.42
2023-11-05T02:02:02.674Z,975.42
2023-11-05T02:03:02.683Z,975.39
2023-11-05T02:04:02.674Z,975.44
2023-11-05T02:05:02.695Z,975.45
2023-11-05T02:06:02.602Z,975.44
2023-11-05T02:07:02.698Z,975.43
2023-11-05T02:08:02.600Z,975.43
2023-11-05T02:09:02.613Z,975.41
2023-11-05T02:10:02.634Z,975.44
2023-11-05T02:11:02.550Z,975.51
2023-11-05T02:12:02.536Z,975.46
2023-11-05T02:13:02.581Z,975.45
2023-11-05T02:14:02.549Z,975.46
2023-11-05T02:15:02.514Z,975.46
2023-11-05T02:16:02.606Z,975.48
2023-11-05T02:17:02.493Z,975.43
2023-11-05T02:18:02.564Z,975.43
2023-11-05T02:19:02.574Z,975.40
2023-11-05T02:20:02.503Z,975.43
2023-11-05T02:21:02.440Z,975.43
2023-11-05T02:22:02.494Z,975.44
2023-11-05T02:23:02.447Z,975.39
2023-11-05T02:24:02.437Z,975.40
2023-11-05T02:25:02.479Z,975.45
2023-11-05T02:26:02.389Z,975.43
2023-11-05T02:27:02.396Z,975.44
2023-11-05T02:28:02.393Z,975.38
2023-11-05T02:29:02.371Z,975.40
2023-11-05T02:30:02.372Z,975.39
2023-11-05T02:31:02.377Z,975.43
2023-11-05T02:32:02.327Z,975.40
2023-11-05T02:33:02.352Z,975.40
2023-11-05T02:34:02.382Z,975.40
2023-11-05T02:35:02.341Z,975.43
2023-11-05T02:36:02.283Z,975.35
2023-11-05T02:37:02.314Z,975.41
2023-11-05T02:38:02.279Z,975.39
2023-11-05T02:39:02.275Z,975.39
2023-11-05T02:40:02.319Z,975.42
2023-11-05T02:41:02.246Z,975.38
2023-11-05T02:42:02.248Z,975.38
2023-11-05T02:43:02.248Z,975.39
2023-11-05T02:44:02.204Z,975.38
2023-11-05T02:45:02.184Z,975.45
2023-11-05T02:47:29.741Z,975.40
2023-11-05T02:47:35.631Z,975.35
2023-11-05T02:48:35.281Z,975.34
2023-11-05T02:49:35.243Z,975.41
2023-11-05T02:50:35.176Z,975.39
2023-11-05T02:51:35.179Z,975.29
2023-11-05T02:52:35.231Z,975.31
2023-11-05T02:53:35.130Z,975.28
2023-11-05T02:54:35.135Z,975.26
2023-11-05T02:55:35.122Z,975.26
2023-11-05T02:56:35.118Z,975.24
2023-11-05T02:57:35.105Z,975.26
2023-11-05T02:58:35.118Z,975.26
2023-11-05T02:59:35.073Z,975.22
2023-11-05T03:00:37.815Z,975.24
2023-11-05T03:01:35.095Z,975.19
2023-11-05T03:02:35.124Z,975.19
2023-11-05T03:03:35.161Z,975.18
2023-11-05T03:04:35.122Z,975.09
2023-11-05T03:05:35.112Z,975.19
2023-11-05T03:06:34.997Z,975.17
2023-11-05T03:07:35.015Z,975.15
2023-11-05T03:08:34.988Z,975.16
2023-11-05T03:09:34.959Z,975.13
2023-11-05T03:10:34.974Z,975.14
2023-11-05T03:11:34.948Z,975.16
2023-11-05T03:12:34.948Z,975.12
2023-11-05T03:13:34.973Z,975.13
2023-11-05T03:14:34.916Z,975.10
2023-11-05T03:15:34.907Z,975.10
2023-11-05T03:16:34.943Z,975.08
2023-11-05T03:17:34.971Z,975.07
2023-11-05T03:18:34.951Z,975.09
2023-11-05T03:19:34.899Z,975.09
2023-11-05T03:20:34.849Z,975.08
2023-11-05T03:21:34.848Z,975.07
2023-11-05T03:22:34.894Z,975.10
2023-11-05T03:23:34.836Z,975.10
2023-11-05T03:24:34.813Z,975.05
2023-11-05T03:25:34.827Z,975.05
2023-11-05T03:26:34.791Z,975.03
2023-11-05T03:27:34.794Z,975.00
2023-11-05T03:28:34.852Z,975.01
2023-11-05T03:29:34.753Z,974.98
2023-11-05T03:30:34.759Z,975.00
2023-11-05T03:31:34.779Z,974.96
2023-11-05T03:32:34.728Z,974.91
2023-11-05T03:33:34.743Z,974.94
2023-11-05T03:34:34.742Z,974.87
2023-11-05T03:35:34.694Z,974.91
2023-11-05T03:36:34.670Z,974.89
2023-11-05T03:37:34.705Z,974.93
2023-11-05T03:38:34.684Z,974.94
2023-11-05T03:39:34.681Z,974.94
2023-11-05T03:40:34.691Z,974.93
2023-11-05T03:41:34.641Z,974.93
2023-11-05T03:42:34.613Z,974.91
2023-11-05T03:43:34.624Z,974.92
2023-11-05T03:44:34.611Z,974.86
2023-11-05T03:45:34.599Z,974.89
2023-11-05T03:46:34.615Z,974.92
2023-11-05T03:47:34.643Z,974.86
2023-11-05T03:48:34.617Z,974.83
2023-11-05T03:49:34.563Z,974.82
2023-11-05T03:50:34.540Z,974.89
2023-11-05T03:51:34.549Z,974.87
2023-11-05T03:52:34.561Z,974.85
2023-11-05T03:53:34.502Z,974.87
2023-11-05T03:54:34.488Z,974.87
2023-11-05T03:55:34.589Z,974.84
2023-11-05T03:56:34.479Z,974.82
2023-11-05T03:57:34.453Z,974.86
2023-11-05T03:58:34.475Z,974.87
2023-11-05T03:59:34.442Z,974.83
2023-11-05T04:00:34.433Z,974.81
2023-11-05T04:01:34.483Z,974.86
2023-11-05T04:02:34.412Z,974.80
2023-11-05T04:03:34.493Z,974.86
2023-11-05T04:04:34.451Z,974.84
2023-11-05T04:05:34.446Z,974.81
2023-11-05T04:06:34.378Z,974.79
2023-11-05T04:07:34.396Z,974.82
2023-11-05T04:08:34.358Z,974.82
2023-11-05T04:09:34.348Z,974.82
2023-11-05T04:10:34.379Z,974.81
2023-11-05T04:11:34.309Z,974.81
2023-11-05T04:12:34.292Z,974.79
2023-11-05T04:13:34.430Z,974.80
2023-11-05T04:14:42.175Z,974.75
2023-11-05T04:15:34.294Z,974.79
2023-11-05T04:16:34.368Z,974.80
2023-11-05T04:17:40.955Z,974.79
2023-11-05T04:18:34.262Z,974.82
2023-11-05T04:19:34.310Z,974.81
2023-11-05T04:20:34.217Z,974.81
2023-11-05T04:21:34.232Z,974.80
2023-11-05T04:22:34.236Z,974.81
2023-11-05T04:23:34.185Z,974.83
2023-11-05T04:24:34.210Z,974.82
2023-11-05T04:25:34.223Z,974.77
2023-11-05T04:26:34.166Z,974.73
2023-11-05T04:27:34.147Z,974.78
2023-11-05T04:28:34.196Z,974.79
2023-11-05T04:29:36.502Z,974.77
2023-11-05T04:30:34.150Z,974.74
2023-11-05T04:31:34.157Z,974.87
2023-11-05T04:32:34.218Z,974.85
2023-11-05T04:33:41.796Z,974.82
2023-11-05T04:34:34.227Z,974.79
2023-11-05T04:35:34.077Z,974.79
2023-11-05T04:36:34.042Z,974.73
2023-11-05T04:37:34.131Z,974.74
2023-11-05T04:38:34.031Z,974.77
2023-11-05T04:39:34.054Z,974.76
2023-11-05T04:40:34.038Z,974.78
2023-11-05T04:41:34.024Z,974.72
2023-11-05T04:42:33.987Z,974.72
2023-11-05T04:43:34.020Z,974.71
2023-11-05T04:44:33.973Z,974.67
2023-11-05T04:45:33.973Z,974.67
2023-11-05T04:46:34.019Z,974.61
2023-11-05T04:47:33.967Z,974.64
2023-11-05T04:48:34.067Z,974.62
2023-11-05T04:49:34.078Z,974.60
2023-11-05T04:50:33.895Z,974.64
2023-11-05T04:51:33.922Z,974.64
2023-11-05T04:52:33.985Z,974.70
2023-11-05T04:53:33.881Z,974.74
2023-11-05T04:54:33.858Z,974.74
2023-11-05T04:55:33.943Z,974.73
2023-11-05T04:56:33.837Z,974.71
2023-11-05T04:57:33.850Z,974.70
2023-11-05T04:58:33.922Z,974.74
2023-11-05T04:59:33.809Z,974.73
2023-11-05T05:00:33.800Z,974.71
2023-11-05T05:01:33.853Z,974.69
2023-11-05T05:02:33.787Z,974.67
2023-11-05T05:03:33.780Z,974.72
2023-11-05T05:04:33.815Z,974.74
2023-11-05T05:05:33.773Z,974.71
2023-11-05T05:06:33.744Z,974.71
2023-11-05T05:07:33.747Z,974.63
2023-11-05T05:08:33.705Z,974.67
2023-11-05T05:09:33.717Z,974.65
2023-11-05T05:10:33.768Z,974.66
2023-11-05T05:11:33.719Z,974.67
2023-11-05T05:12:33.687Z,974.65
2023-11-05T05:13:33.711Z,974.64
2023-11-05T05:14:33.662Z,974.62
2023-11-05T05:15:33.628Z,974.64
2023-11-05T05:16:33.682Z,974.60
2023-11-05T05:17:33.646Z,974.59
2023-11-05T05:18:33.664Z,974.54
2023-11-05T05:19:33.618Z,974.54
2023-11-05T05:20:33.589Z,974.53
2023-11-05T05:21:33.598Z,974.54
2023-11-05T05:22:33.617Z,974.59
2023-11-05T05:23:33.570Z,974.62
2023-11-05T05:24:33.540Z,974.60
2023-11-05T05:25:33.580Z,974.58
2023-11-05T05:26:33.534Z,974.64
2023-11-05T05:27:33.531Z,974.60
2023-11-05T05:28:33.525Z,974.63
2023-11-05T05:29:33.491Z,974.64
2023-11-05T05:30:33.488Z,974.67
2023-11-05T05:31:35.152Z,974.60
2023-11-05T05:32:33.538Z,974.59
2023-11-05T05:33:33.510Z,974.59
2023-11-05T05:34:33.500Z,974.56
2023-11-05T05:35:33.419Z,974.58
2023-11-05T05:36:33.357Z,974.58
2023-11-05T05:37:33.390Z,974.57
2023-11-05T05:38:33.377Z,974.57
2023-11-05T05:39:33.341Z,974.58
2023-11-05T05:40:33.363Z,974.56
2023-11-05T05:41:33.309Z,974.57
2023-11-05T05:42:33.292Z,974.60
2023-11-05T05:43:33.334Z,974.56
2023-11-05T05:44:33.302Z,974.60
2023-11-05T05:45:33.262Z,974.59
2023-11-05T05:46:33.300Z,974.62
2023-11-05T05:47:33.261Z,974.61
2023-11-05T05:48:33.266Z,974.59
2023-11-05T05:49:33.280Z,974.61
2023-11-05T05:50:33.226Z,974.55
2023-11-05T05:51:33.206Z,974.59
2023-11-05T05:52:33.221Z,974.63
2023-11-05T05:53:33.209Z,974.63
2023-11-05T05:54:33.165Z,974.59
2023-11-05T05:55:33.188Z,974.61
2023-11-05T05:56:33.158Z,974.57
2023-11-05T05:57:33.140Z,974.57
2023-11-05T05:58:33.142Z,974.58
2023-11-05T05:59:33.144Z,974.58
2023-11-05T06:00:33.154Z,974.56
2023-11-05T06:01:33.219Z,974.53
2023-11-05T06:02:33.096Z,974.54
2023-11-05T06:03:33.114Z,974.52
2023-11-05T06:04:33.112Z,974.51
2023-11-05T06:05:33.120Z,974.54
2023-11-05T06:06:33.068Z,974.51
2023-11-05T06:07:33.113Z,974.49
2023-11-05T06:08:33.035Z,974.49
2023-11-05T06:09:33.008Z,974.47
2023-11-05T06:10:33.016Z,974.48
2023-11-05T06:11:32.998Z,974.40
2023-11-05T06:12:33.049Z,974.45
2023-11-05T06:13:32.997Z,974.43
2023-11-05T06:14:41.085Z,974.43
2023-11-05T06:15:32.963Z,974.41
2023-11-05T06:16:33.013Z,974.41
2023-11-05T06:17:32.941Z,974.42
2023-11-05T06:18:33.044Z,974.43
2023-11-05T06:19:32.955Z,974.44
2023-11-05T06:20:32.894Z,974.47
2023-11-05T06:21:32.882Z,974.41
2023-11-05T06:22:33.684Z,974.45
2023-11-05T06:23:32.877Z,974.43
2023-11-05T06:24:32.858Z,974.43
2023-11-05T06:25:32.874Z,974.42
2023-11-05T06:26:32.819Z,974.41
2023-11-05T06:27:32.839Z,974.45
2023-11-05T06:28:32.849Z,974.44
2023-11-05T06:29:32.832Z,974.46
2023-11-05T06:30:32.787Z,974.42
2023-11-05T06:31:32.844Z,974.43
2023-11-05T06:32:32.785Z,974.39
2023-11-05T06:33:32.771Z,974.39
2023-11-05T06:34:32.782Z,974.42
2023-11-05T06:35:32.742Z,974.37
2023-11-05T06:36:32.742Z,974.32
2023-11-05T06:37:32.817Z,974.30
2023-11-05T06:38:32.725Z,974.31
2023-11-05T06:39:32.690Z,974.32
2023-11-05T06:40:32.714Z,974.29
2023-11-05T06:41:32.669Z,974.28
2023-11-05T06:42:32.675Z,974.29
2023-11-05T06:43:32.694Z,974.28
2023-11-05T06:44:32.668Z,974.29
2023-11-05T06:45:32.650Z,974.20
2023-11-05T06:46:32.662Z,974.19
2023-11-05T06:47:32.656Z,974.21
2023-11-05T06:48:32.689Z,974.19
2023-11-05T06:49:32.628Z,974.23
2023-11-05T06:50:32.583Z,974.23
2023-11-05T06:51:32.580Z,974.26
2023-11-05T06:52:32.629Z,974.28
2023-11-05T06:53:32.538Z,974.24
2023-11-05T06:54:32.550Z,974.26
2023-11-05T06:55:32.584Z,974.17
2023-11-05T06:56:32.533Z,974.12
2023-11-05T06:57:32.498Z,974.09
2023-11-05T06:58:32.538Z,974.12
2023-11-05T06:59:32.481Z,974.10
2023-11-05T07:00:32.474Z,974.11
2023-11-05T07:01:32.481Z,974.11
2023-11-05T07:02:32.490Z,974.08
2023-11-05T07:03:32.469Z,974.08
2023-11-05T07:04:32.570Z,974.08
2023-11-05T07:05:32.417Z,974.14
2023-11-05T07:06:32.425Z,974.10
2023-11-05T07:07:32.446Z,974.11
2023-11-05T07:08:32.386Z,974.06
2023-11-05T07:09:32.389Z,974.09
2023-11-05T07:10:32.406Z,974.11
2023-11-05T07:11:32.369Z,974.11
2023-11-05T07:12:32.368Z,974.11
2023-11-05T07:13:32.354Z,974.04
2023-11-05T07:14:32.334Z,974.04
2023-11-05T07:15:32.319Z,974.02
2023-11-05T07:16:32.367Z,974.02
2023-11-05T07:17:32.325Z,974.03
2023-11-05T07:18:32.370Z,973.95
2023-11-05T07:19:32.285Z,974.02
2023-11-05T07:20:32.297Z,974.00
2023-11-05T07:21:32.243Z,973.96
2023-11-05T07:22:32.297Z,973.99
2023-11-05T07:23:32.269Z,973.98
2023-11-05T07:24:32.229Z,973.97
2023-11-05T07:25:32.251Z,974.01
2023-11-05T07:26:32.196Z,973.95
2023-11-05T07:27:32.185Z,974.00
2023-11-05T07:28:32.216Z,974.04
2023-11-05T07:29:32.176Z,974.06
2023-11-05T07:30:32.157Z,974.03
2023-11-05T07:31:32.196Z,974.01
2023-11-05T07:32:32.150Z,974.05
2023-11-05T07:33:32.150Z,974.05
2023-11-05T07:34:32.194Z,974.01
2023-11-05T07:35:32.112Z,974.04
2023-11-05T07:36:32.107Z,974.02
2023-11-05T07:37:32.158Z,974.00
2023-11-05T07:38:32.084Z,973.99
2023-11-05T07:39:32.077Z,973.99
2023-11-05T07:40:32.099Z,974.07
2023-11-05T07:41:32.042Z,974.02
2023-11-05T07:42:32.036Z,974.03
2023-11-05T07:43:32.094Z,974.00
2023-11-05T07:44:32.034Z,974.05
2023-11-05T07:45:32.014Z,974.03
2023-11-05T07:46:32.017Z,974.04
2023-11-05T07:47:32.014Z,974.01
2023-11-05T07:48:32.006Z,974.05
2023-11-05T07:49:31.997Z,974.04
2023-11-05T07:50:31.960Z,974.11
2023-11-05T07:51:31.937Z,974.06
2023-11-05T07:52:31.961Z,974.11
2023-11-05T07:53:31.908Z,974.12
2023-11-05T07:54:31.934Z,974.12
2023-11-05T07:55:31.936Z,974.09
2023-11-05T07:56:32.182Z,974.18
2023-11-05T07:57:31.875Z,974.12
2023-11-05T07:58:31.880Z,974.06
2023-11-05T07:59:31.898Z,974.05
2023-11-05T08:00:31.865Z,974.02
2023-11-05T08:01:31.867Z,974.03
2023-11-05T08:02:31.830Z,973.99
2023-11-05T08:03:31.855Z,973.98
2023-11-05T08:04:31.826Z,973.96
2023-11-05T08:05:31.856Z,973.96
2023-11-05T08:06:31.803Z,973.96
2023-11-05T08:07:31.790Z,973.99
2023-11-05T08:08:31.787Z,973.95
2023-11-05T08:09:31.739Z,973.95
2023-11-05T08:10:31.777Z,973.98
2023-11-05T08:11:31.742Z,974.00
2023-11-05T08:12:31.696Z,973.96
2023-11-05T08:13:31.771Z,973.98
2023-11-05T08:14:31.689Z,974.04
2023-11-05T08:15:31.667Z,974.01
2023-11-05T08:16:31.734Z,974.03
2023-11-05T08:17:31.707Z,974.05
2023-11-05T08:18:31.711Z,974.02
2023-11-05T08:19:31.658Z,974.01
2023-11-05T08:20:31.658Z,974.04
2023-11-05T08:21:31.640Z,974.06
2023-11-05T08:22:31.651Z,974.07
2023-11-05T08:23:31.598Z,974.13
2023-11-05T08:24:31.576Z,974.12
2023-11-05T08:25:31.570Z,974.08
2023-11-05T08:26:31.566Z,974.10
2023-11-05T08:27:31.569Z,974.08
2023-11-05T08:28:31.612Z,974.08
2023-11-05T08:29:31.653Z,974.10
2023-11-05T08:30:31.516Z,974.07
2023-11-05T08:31:31.552Z,974.04
2023-11-05T08:32:31.517Z,974.12
2023-11-05T08:33:31.516Z,974.05
2023-11-05T08:34:31.546Z,974.11
2023-11-05T08:35:31.470Z,974.11
2023-11-05T08:36:31.461Z,974.08
2023-11-05T08:37:31.475Z,974.12
2023-11-05T08:38:31.426Z,974.07
2023-11-05T08:39:31.422Z,974.14
2023-11-05T08:40:31.462Z,974.12
2023-11-05T08:41:31.411Z,974.11
2023-11-05T08:42:31.408Z,974.10
2023-11-05T08:43:32.295Z,974.11
2023-11-05T08:44:31.386Z,974.12
2023-11-05T08:45:34.632Z,974.14
2023-11-05T08:46:31.407Z,974.13
2023-11-05T08:47:31.393Z,974.20
2023-11-05T08:48:31.385Z,974.19
2023-11-05T08:49:31.345Z,974.17
2023-11-05T08:50:31.312Z,974.14
2023-11-05T08:51:31.290Z,974.16
2023-11-05T08:52:31.348Z,974.17
2023-11-05T08:53:31.307Z,974.23
2023-11-05T08:54:31.279Z,974.21
2023-11-05T08:55:31.290Z,974.17
2023-11-05T08:56:31.270Z,974.17
2023-11-05T08:57:31.229Z,974.21
2023-11-05T08:58:31.231Z,974.20
2023-11-05T08:59:31.251Z,974.14
2023-11-05T09:00:31.225Z,974.21
2023-11-05T09:01:31.230Z,974.15
2023-11-05T09:02:31.212Z,974.19
2023-11-05T09:03:31.252Z,974.19
2023-11-05T09:04:31.205Z,974.22
2023-11-05T09:05:31.166Z,974.25
2023-11-05T09:06:31.177Z,974.27
2023-11-05T09:07:31.216Z,974.24
2023-11-05T09:08:31.127Z,974.23
2023-11-05T09:09:31.123Z,974.27
2023-11-05T09:10:31.138Z,974.25
2023-11-05T09:11:31.096Z,974.25
2023-11-05T09:12:31.065Z,974.25
2023-11-05T09:13:31.072Z,974.24
2023-11-05T09:14:31.069Z,974.25
2023-11-05T09:15:31.057Z,974.27
2023-11-05T09:16:31.080Z,974.29
2023-11-05T09:17:31.039Z,974.31
2023-11-05T09:18:31.065Z,974.29
2023-11-05T09:19:31.037Z,974.28
2023-11-05T09:20:33.848Z,974.33
2023-11-05T09:21:30.996Z,974.34
2023-11-05T09:22:31.000Z,974.35
2023-11-05T09:23:30.949Z,974.33
2023-11-05T09:24:31.076Z,974.29
2023-11-05T09:25:30.980Z,974.33
2023-11-05T09:26:33.189Z,974.36
2023-11-05T09:27:30.932Z,974.28
2023-11-05T09:28:30.998Z,974.30
2023-11-05T09:29:30.912Z,974.31
2023-11-05T09:30:30.877Z,974.28
2023-11-05T09:31:31.826Z,974.26
2023-11-05T09:32:30.916Z,974.26
2023-11-05T09:33:30.873Z,974.34
2023-11-05T09:34:30.854Z,974.32
2023-11-05T09:35:30.895Z,974.33
2023-11-05T09:36:30.832Z,974.32
2023-11-05T09:37:30.886Z,974.29
2023-11-05T09:38:30.890Z,974.33
2023-11-05T09:39:30.807Z,974.26
2023-11-05T09:40:30.799Z,974.31
2023-11-05T09:41:30.780Z,974.32
2023-11-05T09:42:30.782Z,974.26
2023-11-05T09:43:30.793Z,974.34
2023-11-05T09:44:30.756Z,974.30
2023-11-05T09:45:30.759Z,974.32
2023-11-05T09:46:30.758Z,974.34
2023-11-05T09:47:30.741Z,974.33
2023-11-05T09:48:30.788Z,974.27
2023-11-05T09:49:30.738Z,974.29
2023-11-05T09:50:30.729Z,974.23
2023-11-05T09:51:30.664Z,974.29
2023-11-05T09:52:30.703Z,974.32
2023-11-05T09:53:30.733Z,974.28
2023-11-05T09:54:30.668Z,974.29
2023-11-05T09:55:33.485Z,974.32
2023-11-05T09:56:30.608Z,974.24
2023-11-05T09:57:30.608Z,974.28
2023-11-05T09:58:30.611Z,974.31
2023-11-05T09:59:30.578Z,974.30
2023-11-05T10:00:30.590Z,974.31
2023-11-05T10:01:30.597Z,974.33
2023-11-05T10:02:30.557Z,974.32
2023-11-05T10:03:30.591Z,974.26
2023-11-05T10:04:30.557Z,974.27
2023-11-05T10:05:30.605Z,974.25
2023-11-05T10:06:30.522Z,974.30
2023-11-05T10:07:30.545Z,974.27
2023-11-05T10:08:30.484Z,974.29
2023-11-05T10:09:30.495Z,974.33
2023-11-05T10:10:30.486Z,974.30
2023-11-05T10:11:30.478Z,974.24
2023-11-05T10:12:30.614Z,974.24
2023-11-05T10:13:30.493Z,974.26
2023-11-05T10:14:30.437Z,974.26
2023-11-05T10:15:30.408Z,974.21
2023-11-05T10:16:30.497Z,974.23
2023-11-05T10:17:30.392Z,974.21
2023-11-05T10:18:30.421Z,974.23
2023-11-05T10:19:30.462Z,974.21
2023-11-05T10:20:30.352Z,974.20
2023-11-05T10:21:30.363Z,974.18
2023-11-05T10:22:30.359Z,974.17
2023-11-05T10:23:30.351Z,974.20
2023-11-05T10:24:30.309Z,974.18
2023-11-05T10:25:30.336Z,974.19
2023-11-05T10:26:30.408Z,974.18
2023-11-05T10:27:30.297Z,974.21
2023-11-05T10:28:30.281Z,974.18
2023-11-05T10:29:30.280Z,974.21
2023-11-05T10:30:30.264Z,974.16
2023-11-05T10:31:30.391Z,974.22
2023-11-05T10:32:30.255Z,974.24
2023-11-05T10:33:30.275Z,974.21
2023-11-05T22:34:49.432Z,984.84
2023-11-05T22:35:50.228Z,984.87
2023-11-05T22:36:50.157Z,984.84
2023-11-05T22:37:50.186Z,984.90
2023-11-05T22:38:50.124Z,984.99
2023-11-05T22:39:50.136Z,984.82
2023-11-05T22:40:50.183Z,984.83
2023-11-05T22:41:50.118Z,984.91
2023-11-05T22:42:50.105Z,984.90
2023-11-05T22:43:50.116Z,984.98
2023-11-05T22:44:50.063Z,985.01
2023-11-05T22:45:50.066Z,985.00
2023-11-05T22:46:50.066Z,985.07
2023-11-05T22:47:50.050Z,985.02
2023-11-05T22:48:50.058Z,985.08
2023-11-05T22:49:50.034Z,985.03
2023-11-05T22:50:50.026Z,985.07
2023-11-05T22:51:49.989Z,985.03
2023-11-05T22:52:49.998Z,985.14
2023-11-05T22:53:49.965Z,985.13
2023-11-05T22:54:49.981Z,985.14
2023-11-05T22:55:50.088Z,985.20
2023-11-05T22:56:49.947Z,985.22
2023-11-05T22:57:49.991Z,985.31
2023-11-05T22:58:49.947Z,985.28
2023-11-05T22:59:49.908Z,985.24
2023-11-05T23:00:49.917Z,985.37
2023-11-05T23:01:49.972Z,985.40
2023-11-05T23:02:49.908Z,985.43
2023-11-05T23:03:49.903Z,985.40
2023-11-05T23:04:49.896Z,985.47
2023-11-05T23:05:50.799Z,985.39
2023-11-05T23:06:49.844Z,985.38
2023-11-05T23:07:49.851Z,985.51
2023-11-05T23:08:49.819Z,985.42
2023-11-05T23:09:49.821Z,985.39
2023-11-05T23:10:49.793Z,985.49
2023-11-05T23:11:49.786Z,985.55
2023-11-05T23:12:49.785Z,985.57
2023-11-05T23:13:49.787Z,985.53
2023-11-05T23:14:49.749Z,985.55
2023-11-05T23:15:49.728Z,985.61
2023-11-05T23:16:49.801Z,985.58
2023-11-05T23:17:49.749Z,985.60
2023-11-05T23:18:49.743Z,985.66
2023-11-05T23:19:49.749Z,985.68
2023-11-05T23:20:49.683Z,985.62
2023-11-05T23:21:49.663Z,985.82
2023-11-05T23:22:49.674Z,985.74
2023-11-05T23:23:49.651Z,985.76
2023-11-05T23:24:51.381Z,985.66
2023-11-05T23:25:49.663Z,985.79
2023-11-05T23:26:49.644Z,985.79
2023-11-05T23:27:49.633Z,985.88
2023-11-05T23:28:49.620Z,985.80
2023-11-05T23:29:49.577Z,985.72
2023-11-05T23:30:49.578Z,985.79
2023-11-05T23:31:49.647Z,985.84
2023-11-05T23:32:49.611Z,985.96
2023-11-05T23:33:49.581Z,985.97
2023-11-05T23:34:49.567Z,985.81
2023-11-05T23:35:49.528Z,985.94
2023-11-05T23:36:49.520Z,985.93
2023-11-05T23:37:49.582Z,985.99
2023-11-05T23:38:49.544Z,986.05
2023-11-05T23:39:49.530Z,985.99
2023-11-05T23:40:49.494Z,986.00
2023-11-05T23:41:49.482Z,985.88
2023-11-05T23:42:49.452Z,985.99
2023-11-05T23:43:49.453Z,985.94
2023-11-05T23:44:49.448Z,986.00
2023-11-05T23:45:49.459Z,986.01
2023-11-05T23:46:49.445Z,986.11
2023-11-05T23:47:49.511Z,986.04
2023-11-05T23:48:49.407Z,986.11
2023-11-05T23:49:49.418Z,986.10
2023-11-05T23:50:49.366Z,986.10
2023-11-05T23:51:49.379Z,986.22
2023-11-05T23:52:49.419Z,986.08
2023-11-05T23:53:49.345Z,986.31
2023-11-05T23:54:49.327Z,986.17
2023-11-05T23:55:49.375Z,986.19
2023-11-05T23:56:49.307Z,986.17
2023-11-05T23:57:49.314Z,986.26
2023-11-05T23:58:49.336Z,986.26
2023-11-05T23:59:49.295Z,986.26
